sensor_id;sensor_type;location;lat;lon;timestamp;P1;durP1;ratioP1;P2;durP2;ratioP2
1509;SDS011;746;48.688;9.428;2024-03-23T00:53:52;12.83;;;11.63;;
1509;SDS011;746;48.688;9.428;2024-03-23T00:56:14;13.20;;;11.33;;
1509;SDS011;746;48.688;9.428;2024-03-23T00:58:34;13.00;;;11.17;;
1509;SDS011;746;48.688;9.428;2024-03-23T01:00:57;12.33;;;11.13;;
1509;SDS011;746;48.688;9.428;2024-03-23T01:03:17;12.43;;;10.90;;
1509;SDS011;746;48.688;9.428;2024-03-23T01:05:38;14.53;;;12.33;;
1509;SDS011;746;48.688;9.428;2024-03-23T01:07:59;14.03;;;12.47;;
1509;SDS011;746;48.688;9.428;2024-03-23T01:10:21;14.10;;;12.60;;
1509;SDS011;746;48.688;9.428;2024-03-23T01:12:42;14.50;;;13.00;;
1509;SDS011;746;48.688;9.428;2024-03-23T01:15:03;12.97;;;11.67;;
1509;SDS011;746;48.688;9.428;2024-03-23T01:17:25;14.23;;;12.53;;
1509;SDS011;746;48.688;9.428;2024-03-23T01:19:46;14.27;;;12.87;;
1509;SDS011;746;48.688;9.428;2024-03-23T01:22:06;13.80;;;11.83;;
1509;SDS011;746;48.688;9.428;2024-03-23T01:24:29;14.40;;;12.73;;
1509;SDS011;746;48.688;9.428;2024-03-23T01:26:49;13.93;;;12.27;;
1509;SDS011;746;48.688;9.428;2024-03-23T01:29:10;14.83;;;13.00;;
1509;SDS011;746;48.688;9.428;2024-03-23T01:31:31;14.33;;;12.83;;
1509;SDS011;746;48.688;9.428;2024-03-23T01:33:55;13.10;;;11.70;;
1509;SDS011;746;48.688;9.428;2024-03-23T01:36:15;14.07;;;12.47;;
1509;SDS011;746;48.688;9.428;2024-03-23T01:38:36;16.73;;;12.83;;
1509;SDS011;746;48.688;9.428;2024-03-23T01:40:56;13.47;;;12.07;;
1509;SDS011;746;48.688;9.428;2024-03-23T01:43:18;13.57;;;12.17;;
1509;SDS011;746;48.688;9.428;2024-03-23T01:45:38;13.37;;;12.07;;
1509;SDS011;746;48.688;9.428;2024-03-23T01:47:59;14.07;;;12.50;;
1509;SDS011;746;48.688;9.428;2024-03-23T01:50:22;15.90;;;12.87;;
1509;SDS011;746;48.688;9.428;2024-03-23T01:52:44;15.90;;;12.87;;
1509;SDS011;746;48.688;9.428;2024-03-23T01:55:05;16.13;;;13.73;;
1509;SDS011;746;48.688;9.428;2024-03-23T01:57:26;13.77;;;12.37;;
1509;SDS011;746;48.688;9.428;2024-03-23T01:59:46;16.17;;;13.93;;
1509;SDS011;746;48.688;9.428;2024-03-23T02:02:08;14.67;;;13.10;;
1509;SDS011;746;48.688;9.428;2024-03-23T02:04:29;15.50;;;13.27;;
1509;SDS011;746;48.688;9.428;2024-03-23T02:06:53;17.37;;;14.00;;
1509;SDS011;746;48.688;9.428;2024-03-23T02:09:13;15.83;;;14.20;;
1509;SDS011;746;48.688;9.428;2024-03-23T02:11:34;14.57;;;13.07;;
1509;SDS011;746;48.688;9.428;2024-03-23T02:13:54;16.93;;;13.67;;
1509;SDS011;746;48.688;9.428;2024-03-23T02:16:16;15.17;;;13.67;;
1509;SDS011;746;48.688;9.428;2024-03-23T02:18:36;16.43;;;14.20;;
1509;SDS011;746;48.688;9.428;2024-03-23T02:20:57;15.57;;;13.97;;
1509;SDS011;746;48.688;9.428;2024-03-23T02:23:18;16.63;;;13.57;;
1509;SDS011;746;48.688;9.428;2024-03-23T02:25:39;15.53;;;13.33;;
1509;SDS011;746;48.688;9.428;2024-03-23T02:28:00;15.23;;;13.67;;
1509;SDS011;746;48.688;9.428;2024-03-23T02:30:21;16.53;;;14.90;;
1509;SDS011;746;48.688;9.428;2024-03-23T02:32:41;16.23;;;14.53;;
1509;SDS011;746;48.688;9.428;2024-03-23T02:35:02;15.70;;;14.00;;
1509;SDS011;746;48.688;9.428;2024-03-23T02:37:22;15.47;;;13.93;;
1509;SDS011;746;48.688;9.428;2024-03-23T02:39:45;15.63;;;14.03;;
1509;SDS011;746;48.688;9.428;2024-03-23T02:42:05;16.90;;;14.47;;
1509;SDS011;746;48.688;9.428;2024-03-23T02:44:27;16.83;;;14.80;;
1509;SDS011;746;48.688;9.428;2024-03-23T02:46:47;15.57;;;13.97;;
1509;SDS011;746;48.688;9.428;2024-03-23T02:49:08;15.70;;;14.07;;
1509;SDS011;746;48.688;9.428;2024-03-23T02:51:29;16.97;;;14.70;;
1509;SDS011;746;48.688;9.428;2024-03-23T02:53:50;21.20;;;15.43;;
1509;SDS011;746;48.688;9.428;2024-03-23T02:56:12;16.23;;;14.57;;
1509;SDS011;746;48.688;9.428;2024-03-23T02:58:39;16.17;;;14.47;;
1509;SDS011;746;48.688;9.428;2024-03-23T03:01:00;19.47;;;15.17;;
1509;SDS011;746;48.688;9.428;2024-03-23T03:03:21;16.40;;;14.50;;
1509;SDS011;746;48.688;9.428;2024-03-23T03:05:41;18.43;;;15.73;;
1509;SDS011;746;48.688;9.428;2024-03-23T03:08:03;20.27;;;15.77;;
1509;SDS011;746;48.688;9.428;2024-03-23T03:10:24;17.20;;;15.07;;
1509;SDS011;746;48.688;9.428;2024-03-23T03:12:46;16.97;;;14.93;;
1509;SDS011;746;48.688;9.428;2024-03-23T03:15:07;19.83;;;15.70;;
1509;SDS011;746;48.688;9.428;2024-03-23T03:17:29;17.03;;;15.23;;
1509;SDS011;746;48.688;9.428;2024-03-23T03:19:49;17.03;;;14.97;;
1509;SDS011;746;48.688;9.428;2024-03-23T03:22:15;19.20;;;15.23;;
1509;SDS011;746;48.688;9.428;2024-03-23T03:24:35;17.53;;;15.37;;
1509;SDS011;746;48.688;9.428;2024-03-23T03:26:57;18.87;;;15.57;;
1509;SDS011;746;48.688;9.428;2024-03-23T03:29:19;17.40;;;14.30;;
1509;SDS011;746;48.688;9.428;2024-03-23T03:31:41;16.90;;;14.73;;
1509;SDS011;746;48.688;9.428;2024-03-23T03:34:01;15.20;;;13.70;;
1509;SDS011;746;48.688;9.428;2024-03-23T03:36:24;19.33;;;15.33;;
1509;SDS011;746;48.688;9.428;2024-03-23T03:38:44;15.90;;;13.53;;
1509;SDS011;746;48.688;9.428;2024-03-23T03:41:05;15.80;;;14.20;;
1509;SDS011;746;48.688;9.428;2024-03-23T03:43:25;16.60;;;14.90;;
1509;SDS011;746;48.688;9.428;2024-03-23T03:45:52;16.03;;;14.43;;
1509;SDS011;746;48.688;9.428;2024-03-23T03:48:12;15.80;;;14.07;;
1509;SDS011;746;48.688;9.428;2024-03-23T03:50:34;15.57;;;14.07;;
1509;SDS011;746;48.688;9.428;2024-03-23T03:52:54;16.87;;;15.20;;
1509;SDS011;746;48.688;9.428;2024-03-23T03:55:15;16.20;;;14.60;;
1509;SDS011;746;48.688;9.428;2024-03-23T03:57:36;17.30;;;14.10;;
1509;SDS011;746;48.688;9.428;2024-03-23T03:59:57;14.70;;;13.17;;
1509;SDS011;746;48.688;9.428;2024-03-23T04:02:18;16.43;;;13.63;;
1509;SDS011;746;48.688;9.428;2024-03-23T04:04:40;15.37;;;13.47;;
1509;SDS011;746;48.688;9.428;2024-03-23T04:07:00;18.03;;;14.33;;
1509;SDS011;746;48.688;9.428;2024-03-23T04:09:21;15.57;;;13.80;;
1509;SDS011;746;48.688;9.428;2024-03-23T04:11:41;17.03;;;15.23;;
1509;SDS011;746;48.688;9.428;2024-03-23T04:14:02;16.93;;;15.13;;
1509;SDS011;746;48.688;9.428;2024-03-23T04:16:29;16.57;;;14.80;;
1509;SDS011;746;48.688;9.428;2024-03-23T04:18:53;17.17;;;15.37;;
1509;SDS011;746;48.688;9.428;2024-03-23T04:21:14;18.80;;;15.13;;
1509;SDS011;746;48.688;9.428;2024-03-23T04:23:36;16.23;;;14.40;;
1509;SDS011;746;48.688;9.428;2024-03-23T04:25:56;19.07;;;15.33;;
1509;SDS011;746;48.688;9.428;2024-03-23T04:28:25;17.30;;;15.37;;
1509;SDS011;746;48.688;9.428;2024-03-23T04:30:45;16.87;;;15.07;;
1509;SDS011;746;48.688;9.428;2024-03-23T04:33:06;18.83;;;15.37;;
1509;SDS011;746;48.688;9.428;2024-03-23T04:35:49;16.70;;;14.53;;
1509;SDS011;746;48.688;9.428;2024-03-23T04:38:11;16.13;;;14.47;;
1509;SDS011;746;48.688;9.428;2024-03-23T04:40:32;16.80;;;14.70;;
1509;SDS011;746;48.688;9.428;2024-03-23T04:42:53;15.17;;;13.57;;
1509;SDS011;746;48.688;9.428;2024-03-23T04:45:14;17.50;;;15.00;;
1509;SDS011;746;48.688;9.428;2024-03-23T04:47:36;14.87;;;13.40;;
1509;SDS011;746;48.688;9.428;2024-03-23T04:49:57;15.63;;;13.90;;
1509;SDS011;746;48.688;9.428;2024-03-23T04:52:20;15.57;;;13.97;;
1509;SDS011;746;48.688;9.428;2024-03-23T04:54:43;15.70;;;14.10;;
1509;SDS011;746;48.688;9.428;2024-03-23T04:57:05;13.73;;;12.23;;
1509;SDS011;746;48.688;9.428;2024-03-23T04:59:25;12.97;;;11.57;;
1509;SDS011;746;48.688;9.428;2024-03-23T05:01:46;12.47;;;10.97;;
1509;SDS011;746;48.688;9.428;2024-03-23T05:04:06;11.73;;;9.70;;
1509;SDS011;746;48.688;9.428;2024-03-23T05:06:28;9.87;;;8.87;;
1509;SDS011;746;48.688;9.428;2024-03-23T05:08:49;14.17;;;11.33;;
1509;SDS011;746;48.688;9.428;2024-03-23T05:11:11;13.83;;;11.97;;
1509;SDS011;746;48.688;9.428;2024-03-23T05:13:31;14.50;;;12.40;;
1509;SDS011;746;48.688;9.428;2024-03-23T05:15:53;20.37;;;12.30;;
1509;SDS011;746;48.688;9.428;2024-03-23T05:18:14;11.60;;;10.03;;
1509;SDS011;746;48.688;9.428;2024-03-23T05:20:35;13.43;;;11.67;;
1509;SDS011;746;48.688;9.428;2024-03-23T05:23:05;14.50;;;11.80;;
1509;SDS011;746;48.688;9.428;2024-03-23T05:25:28;16.23;;;12.77;;
1509;SDS011;746;48.688;9.428;2024-03-23T05:27:48;16.60;;;13.70;;
1509;SDS011;746;48.688;9.428;2024-03-23T05:30:10;17.60;;;15.23;;
1509;SDS011;746;48.688;9.428;2024-03-23T05:32:30;17.30;;;14.73;;
1509;SDS011;746;48.688;9.428;2024-03-23T05:34:51;17.00;;;13.97;;
1509;SDS011;746;48.688;9.428;2024-03-23T05:37:15;16.23;;;14.43;;
1509;SDS011;746;48.688;9.428;2024-03-23T05:39:37;17.33;;;15.07;;
1509;SDS011;746;48.688;9.428;2024-03-23T05:41:59;17.07;;;14.77;;
1509;SDS011;746;48.688;9.428;2024-03-23T05:44:20;17.30;;;14.47;;
1509;SDS011;746;48.688;9.428;2024-03-23T05:46:41;17.47;;;15.53;;
1509;SDS011;746;48.688;9.428;2024-03-23T05:49:02;19.00;;;15.23;;
1509;SDS011;746;48.688;9.428;2024-03-23T05:51:23;18.53;;;15.30;;
1509;SDS011;746;48.688;9.428;2024-03-23T05:53:44;20.03;;;15.67;;
1509;SDS011;746;48.688;9.428;2024-03-23T05:56:05;20.17;;;16.13;;
1509;SDS011;746;48.688;9.428;2024-03-23T05:58:27;24.23;;;17.20;;
1509;SDS011;746;48.688;9.428;2024-03-23T06:00:47;21.07;;;17.23;;
1509;SDS011;746;48.688;9.428;2024-03-23T06:03:19;20.67;;;17.40;;
1509;SDS011;746;48.688;9.428;2024-03-23T06:05:38;21.37;;;16.93;;
1509;SDS011;746;48.688;9.428;2024-03-23T06:08:02;20.83;;;17.50;;
1509;SDS011;746;48.688;9.428;2024-03-23T06:10:23;20.97;;;16.70;;
1509;SDS011;746;48.688;9.428;2024-03-23T06:12:45;19.87;;;17.50;;
1509;SDS011;746;48.688;9.428;2024-03-23T06:15:07;17.33;;;15.33;;
1509;SDS011;746;48.688;9.428;2024-03-23T06:17:30;13.17;;;11.77;;
1509;SDS011;746;48.688;9.428;2024-03-23T06:19:50;12.57;;;11.27;;
1509;SDS011;746;48.688;9.428;2024-03-23T06:22:11;12.20;;;10.90;;
1509;SDS011;746;48.688;9.428;2024-03-23T06:24:32;14.87;;;12.60;;
1509;SDS011;746;48.688;9.428;2024-03-23T06:26:53;12.60;;;11.30;;
1509;SDS011;746;48.688;9.428;2024-03-23T06:29:15;12.87;;;11.13;;
1509;SDS011;746;48.688;9.428;2024-03-23T06:31:38;10.67;;;9.67;;
1509;SDS011;746;48.688;9.428;2024-03-23T06:33:58;6.77;;;6.17;;
1509;SDS011;746;48.688;9.428;2024-03-23T06:36:21;6.83;;;6.23;;
1509;SDS011;746;48.688;9.428;2024-03-23T06:38:41;5.33;;;4.83;;
1509;SDS011;746;48.688;9.428;2024-03-23T06:41:03;4.40;;;4.10;;
1509;SDS011;746;48.688;9.428;2024-03-23T06:43:23;3.60;;;3.30;;
1509;SDS011;746;48.688;9.428;2024-03-23T06:45:44;3.77;;;3.47;;
1509;SDS011;746;48.688;9.428;2024-03-23T06:48:06;2.70;;;2.60;;
1509;SDS011;746;48.688;9.428;2024-03-23T06:50:28;2.43;;;2.33;;
1509;SDS011;746;48.688;9.428;2024-03-23T06:52:49;2.17;;;2.07;;
1509;SDS011;746;48.688;9.428;2024-03-23T06:55:10;1.93;;;1.83;;
1509;SDS011;746;48.688;9.428;2024-03-23T06:57:30;1.90;;;1.80;;
1509;SDS011;746;48.688;9.428;2024-03-23T06:59:51;2.03;;;1.90;;
1509;SDS011;746;48.688;9.428;2024-03-23T07:02:12;1.90;;;1.80;;
1509;SDS011;746;48.688;9.428;2024-03-23T07:04:35;1.83;;;1.77;;
1509;SDS011;746;48.688;9.428;2024-03-23T07:06:55;2.33;;;1.77;;
1509;SDS011;746;48.688;9.428;2024-03-23T07:09:16;1.93;;;1.83;;
1509;SDS011;746;48.688;9.428;2024-03-23T07:11:38;1.40;;;1.40;;
1509;SDS011;746;48.688;9.428;2024-03-23T07:13:59;1.67;;;1.60;;
1509;SDS011;746;48.688;9.428;2024-03-23T07:16:19;1.40;;;1.40;;
1509;SDS011;746;48.688;9.428;2024-03-23T07:18:41;1.20;;;1.20;;
1509;SDS011;746;48.688;9.428;2024-03-23T07:21:03;1.40;;;1.40;;
1509;SDS011;746;48.688;9.428;2024-03-23T07:23:26;2.37;;;1.40;;
1509;SDS011;746;48.688;9.428;2024-03-23T07:25:55;1.53;;;1.30;;
1509;SDS011;746;48.688;9.428;2024-03-23T07:28:17;1.50;;;1.40;;
1509;SDS011;746;48.688;9.428;2024-03-23T07:30:37;1.43;;;1.33;;
1509;SDS011;746;48.688;9.428;2024-03-23T07:32:58;1.37;;;1.37;;
1509;SDS011;746;48.688;9.428;2024-03-23T07:35:18;1.50;;;1.50;;
1509;SDS011;746;48.688;9.428;2024-03-23T07:37:42;1.17;;;1.17;;
1509;SDS011;746;48.688;9.428;2024-03-23T07:40:03;1.57;;;1.57;;
1509;SDS011;746;48.688;9.428;2024-03-23T07:42:25;1.33;;;1.33;;
1509;SDS011;746;48.688;9.428;2024-03-23T07:44:46;1.20;;;1.20;;
1509;SDS011;746;48.688;9.428;2024-03-23T07:47:07;1.00;;;1.00;;
1509;SDS011;746;48.688;9.428;2024-03-23T07:49:28;1.50;;;1.50;;
1509;SDS011;746;48.688;9.428;2024-03-23T07:51:49;1.50;;;1.17;;
1509;SDS011;746;48.688;9.428;2024-03-23T07:54:11;1.17;;;1.17;;
1509;SDS011;746;48.688;9.428;2024-03-23T07:56:32;1.10;;;1.10;;
1509;SDS011;746;48.688;9.428;2024-03-23T07:58:53;0.97;;;0.97;;
1509;SDS011;746;48.688;9.428;2024-03-23T08:01:15;1.20;;;1.20;;
1509;SDS011;746;48.688;9.428;2024-03-23T08:03:36;1.20;;;1.20;;
1509;SDS011;746;48.688;9.428;2024-03-23T08:05:57;0.90;;;0.90;;
1509;SDS011;746;48.688;9.428;2024-03-23T08:08:18;0.80;;;0.80;;
1509;SDS011;746;48.688;9.428;2024-03-23T08:10:51;1.20;;;1.20;;
1509;SDS011;746;48.688;9.428;2024-03-23T08:13:12;1.00;;;1.00;;
1509;SDS011;746;48.688;9.428;2024-03-23T08:15:34;1.57;;;1.40;;
1509;SDS011;746;48.688;9.428;2024-03-23T08:17:57;0.90;;;0.90;;
1509;SDS011;746;48.688;9.428;2024-03-23T08:20:18;1.30;;;1.30;;
1509;SDS011;746;48.688;9.428;2024-03-23T08:22:39;1.00;;;1.00;;
1509;SDS011;746;48.688;9.428;2024-03-23T08:24:59;0.70;;;0.70;;
1509;SDS011;746;48.688;9.428;2024-03-23T08:27:22;1.10;;;1.10;;
1509;SDS011;746;48.688;9.428;2024-03-23T08:29:45;1.90;;;1.90;;
1509;SDS011;746;48.688;9.428;2024-03-23T08:32:06;1.30;;;1.30;;
1509;SDS011;746;48.688;9.428;2024-03-23T08:34:27;1.60;;;1.60;;
1509;SDS011;746;48.688;9.428;2024-03-23T08:36:50;1.60;;;1.60;;
1509;SDS011;746;48.688;9.428;2024-03-23T08:39:19;1.40;;;1.40;;
1509;SDS011;746;48.688;9.428;2024-03-23T08:41:40;1.10;;;1.10;;
1509;SDS011;746;48.688;9.428;2024-03-23T08:44:06;1.43;;;1.40;;
1509;SDS011;746;48.688;9.428;2024-03-23T08:46:27;1.50;;;1.50;;
1509;SDS011;746;48.688;9.428;2024-03-23T08:48:50;1.77;;;1.77;;
1509;SDS011;746;48.688;9.428;2024-03-23T08:51:13;1.60;;;1.60;;
1509;SDS011;746;48.688;9.428;2024-03-23T08:53:35;1.40;;;1.40;;
1509;SDS011;746;48.688;9.428;2024-03-23T08:55:57;1.63;;;1.60;;
1509;SDS011;746;48.688;9.428;2024-03-23T08:58:18;1.70;;;1.70;;
1509;SDS011;746;48.688;9.428;2024-03-23T09:00:42;1.50;;;1.50;;
1509;SDS011;746;48.688;9.428;2024-03-23T09:03:03;1.50;;;1.50;;
1509;SDS011;746;48.688;9.428;2024-03-23T09:05:24;2.13;;;2.00;;
1509;SDS011;746;48.688;9.428;2024-03-23T09:07:44;2.00;;;1.90;;
1509;SDS011;746;48.688;9.428;2024-03-23T09:10:09;2.07;;;1.87;;
1509;SDS011;746;48.688;9.428;2024-03-23T09:12:29;2.30;;;1.93;;
1509;SDS011;746;48.688;9.428;2024-03-23T09:14:51;2.30;;;1.83;;
1509;SDS011;746;48.688;9.428;2024-03-23T09:17:15;2.17;;;1.60;;
1509;SDS011;746;48.688;9.428;2024-03-23T09:19:38;1.77;;;1.67;;
1509;SDS011;746;48.688;9.428;2024-03-23T09:21:59;2.43;;;1.80;;
1509;SDS011;746;48.688;9.428;2024-03-23T09:24:21;2.40;;;2.20;;
1509;SDS011;746;48.688;9.428;2024-03-23T09:26:41;2.00;;;1.77;;
1509;SDS011;746;48.688;9.428;2024-03-23T09:29:02;3.00;;;1.73;;
1509;SDS011;746;48.688;9.428;2024-03-23T09:31:26;1.97;;;1.87;;
1509;SDS011;746;48.688;9.428;2024-03-23T09:33:52;2.33;;;1.90;;
1509;SDS011;746;48.688;9.428;2024-03-23T09:36:13;4.00;;;2.33;;
1509;SDS011;746;48.688;9.428;2024-03-23T09:38:34;3.23;;;2.23;;
1509;SDS011;746;48.688;9.428;2024-03-23T09:41:08;3.37;;;2.10;;
1509;SDS011;746;48.688;9.428;2024-03-23T09:43:33;2.83;;;2.23;;
1509;SDS011;746;48.688;9.428;2024-03-23T09:45:58;3.70;;;2.30;;
1509;SDS011;746;48.688;9.428;2024-03-23T09:48:23;4.23;;;2.87;;
1509;SDS011;746;48.688;9.428;2024-03-23T09:50:45;5.07;;;2.90;;
1509;SDS011;746;48.688;9.428;2024-03-23T09:53:09;4.87;;;3.23;;
1509;SDS011;746;48.688;9.428;2024-03-23T09:55:43;5.00;;;3.10;;
1509;SDS011;746;48.688;9.428;2024-03-23T09:58:07;7.00;;;3.30;;
1509;SDS011;746;48.688;9.428;2024-03-23T10:00:28;4.00;;;3.00;;
1509;SDS011;746;48.688;9.428;2024-03-23T10:02:55;5.20;;;3.27;;
1509;SDS011;746;48.688;9.428;2024-03-23T10:05:21;5.27;;;3.30;;
1509;SDS011;746;48.688;9.428;2024-03-23T10:07:44;6.03;;;3.13;;
1509;SDS011;746;48.688;9.428;2024-03-23T10:10:10;7.70;;;3.73;;
1509;SDS011;746;48.688;9.428;2024-03-23T10:12:40;5.60;;;3.40;;
1509;SDS011;746;48.688;9.428;2024-03-23T10:15:05;5.33;;;3.40;;
1509;SDS011;746;48.688;9.428;2024-03-23T10:17:36;5.20;;;3.20;;
1509;SDS011;746;48.688;9.428;2024-03-23T10:19:58;4.23;;;3.47;;
1509;SDS011;746;48.688;9.428;2024-03-23T10:22:21;5.17;;;3.80;;
1509;SDS011;746;48.688;9.428;2024-03-23T10:24:44;6.87;;;4.10;;
1509;SDS011;746;48.688;9.428;2024-03-23T10:27:05;4.93;;;3.67;;
1509;SDS011;746;48.688;9.428;2024-03-23T10:29:25;5.17;;;3.20;;
1509;SDS011;746;48.688;9.428;2024-03-23T10:31:47;7.03;;;3.17;;
1509;SDS011;746;48.688;9.428;2024-03-23T10:34:09;5.80;;;3.73;;
1509;SDS011;746;48.688;9.428;2024-03-23T10:36:34;6.27;;;3.63;;
1509;SDS011;746;48.688;9.428;2024-03-23T10:39:04;5.80;;;4.07;;
1509;SDS011;746;48.688;9.428;2024-03-23T10:41:27;5.10;;;3.70;;
1509;SDS011;746;48.688;9.428;2024-03-23T10:43:48;6.77;;;4.03;;
1509;SDS011;746;48.688;9.428;2024-03-23T10:46:09;5.63;;;3.70;;
1509;SDS011;746;48.688;9.428;2024-03-23T10:48:30;7.43;;;3.77;;
1509;SDS011;746;48.688;9.428;2024-03-23T10:50:52;4.07;;;3.30;;
1509;SDS011;746;48.688;9.428;2024-03-23T10:53:13;5.23;;;3.30;;
1509;SDS011;746;48.688;9.428;2024-03-23T10:55:35;3.63;;;3.27;;
1509;SDS011;746;48.688;9.428;2024-03-23T10:57:58;5.37;;;4.13;;
1509;SDS011;746;48.688;9.428;2024-03-23T11:00:20;5.73;;;3.97;;
1509;SDS011;746;48.688;9.428;2024-03-23T11:02:41;4.97;;;3.67;;
1509;SDS011;746;48.688;9.428;2024-03-23T11:05:05;6.17;;;3.90;;
1509;SDS011;746;48.688;9.428;2024-03-23T11:07:49;5.83;;;3.53;;
1509;SDS011;746;48.688;9.428;2024-03-23T11:10:24;7.37;;;3.47;;
1509;SDS011;746;48.688;9.428;2024-03-23T11:12:47;5.00;;;3.43;;
1509;SDS011;746;48.688;9.428;2024-03-23T11:15:11;6.40;;;4.07;;
1509;SDS011;746;48.688;9.428;2024-03-23T11:17:31;9.67;;;5.00;;
1509;SDS011;746;48.688;9.428;2024-03-23T11:19:53;10.63;;;5.30;;
1509;SDS011;746;48.688;9.428;2024-03-23T11:22:16;6.63;;;4.83;;
1509;SDS011;746;48.688;9.428;2024-03-23T11:25:01;3.67;;;3.10;;
1509;SDS011;746;48.688;9.428;2024-03-23T11:27:22;3.63;;;2.87;;
1509;SDS011;746;48.688;9.428;2024-03-23T11:29:44;2.90;;;2.70;;
1509;SDS011;746;48.688;9.428;2024-03-23T11:32:05;2.80;;;2.60;;
1509;SDS011;746;48.688;9.428;2024-03-23T11:34:33;3.10;;;2.90;;
1509;SDS011;746;48.688;9.428;2024-03-23T11:37:03;3.10;;;2.77;;
1509;SDS011;746;48.688;9.428;2024-03-23T11:39:25;3.60;;;3.30;;
1509;SDS011;746;48.688;9.428;2024-03-23T11:41:48;3.23;;;2.93;;
1509;SDS011;746;48.688;9.428;2024-03-23T11:44:14;3.70;;;3.03;;
1509;SDS011;746;48.688;9.428;2024-03-23T11:46:43;3.30;;;3.00;;
1509;SDS011;746;48.688;9.428;2024-03-23T11:49:06;3.30;;;3.07;;
1509;SDS011;746;48.688;9.428;2024-03-23T11:51:26;4.60;;;4.10;;
1509;SDS011;746;48.688;9.428;2024-03-23T11:53:53;5.57;;;3.67;;
1509;SDS011;746;48.688;9.428;2024-03-23T11:56:14;3.80;;;3.30;;
1509;SDS011;746;48.688;9.428;2024-03-23T11:58:35;4.70;;;3.60;;
1509;SDS011;746;48.688;9.428;2024-03-23T12:00:56;5.03;;;3.67;;
1509;SDS011;746;48.688;9.428;2024-03-23T12:03:22;3.80;;;3.50;;
1509;SDS011;746;48.688;9.428;2024-03-23T12:05:48;3.60;;;3.03;;
1509;SDS011;746;48.688;9.428;2024-03-23T12:08:20;3.27;;;2.97;;
1509;SDS011;746;48.688;9.428;2024-03-23T12:10:43;3.37;;;3.00;;
1509;SDS011;746;48.688;9.428;2024-03-23T12:13:05;3.07;;;2.80;;
1509;SDS011;746;48.688;9.428;2024-03-23T12:15:25;3.60;;;3.23;;
1509;SDS011;746;48.688;9.428;2024-03-23T12:17:49;6.67;;;4.10;;
1509;SDS011;746;48.688;9.428;2024-03-23T12:20:10;7.73;;;4.57;;
1509;SDS011;746;48.688;9.428;2024-03-23T12:22:32;5.77;;;3.87;;
1509;SDS011;746;48.688;9.428;2024-03-23T12:24:54;5.87;;;3.47;;
1509;SDS011;746;48.688;9.428;2024-03-23T12:27:16;2.87;;;2.63;;
1509;SDS011;746;48.688;9.428;2024-03-23T12:29:36;4.73;;;3.13;;
1509;SDS011;746;48.688;9.428;2024-03-23T12:31:59;5.97;;;3.70;;
1509;SDS011;746;48.688;9.428;2024-03-23T12:34:20;6.07;;;2.50;;
1509;SDS011;746;48.688;9.428;2024-03-23T12:36:41;4.40;;;2.90;;
1509;SDS011;746;48.688;9.428;2024-03-23T12:39:03;2.57;;;2.33;;
1509;SDS011;746;48.688;9.428;2024-03-23T12:41:24;6.77;;;4.40;;
1509;SDS011;746;48.688;9.428;2024-03-23T12:43:45;2.97;;;2.67;;
1509;SDS011;746;48.688;9.428;2024-03-23T12:46:06;4.63;;;3.27;;
1509;SDS011;746;48.688;9.428;2024-03-23T12:48:28;5.03;;;3.17;;
1509;SDS011;746;48.688;9.428;2024-03-23T12:50:54;4.43;;;2.80;;
1509;SDS011;746;48.688;9.428;2024-03-23T12:53:15;4.57;;;2.83;;
1509;SDS011;746;48.688;9.428;2024-03-23T12:55:38;5.37;;;3.27;;
1509;SDS011;746;48.688;9.428;2024-03-23T12:57:59;5.57;;;2.97;;
1509;SDS011;746;48.688;9.428;2024-03-23T13:00:20;5.60;;;2.70;;
1509;SDS011;746;48.688;9.428;2024-03-23T13:02:41;5.60;;;3.10;;
1509;SDS011;746;48.688;9.428;2024-03-23T13:05:02;6.53;;;2.43;;
1509;SDS011;746;48.688;9.428;2024-03-23T13:07:24;3.40;;;2.60;;
1509;SDS011;746;48.688;9.428;2024-03-23T13:09:45;2.60;;;2.40;;
1509;SDS011;746;48.688;9.428;2024-03-23T13:12:07;5.67;;;3.87;;
1509;SDS011;746;48.688;9.428;2024-03-23T13:14:36;6.53;;;3.33;;
1509;SDS011;746;48.688;9.428;2024-03-23T13:16:56;7.70;;;3.30;;
1509;SDS011;746;48.688;9.428;2024-03-23T13:19:18;5.20;;;3.57;;
1509;SDS011;746;48.688;9.428;2024-03-23T13:21:39;5.53;;;3.67;;
1509;SDS011;746;48.688;9.428;2024-03-23T13:24:00;6.50;;;3.73;;
1509;SDS011;746;48.688;9.428;2024-03-23T13:26:20;5.57;;;3.73;;
1509;SDS011;746;48.688;9.428;2024-03-23T13:28:43;4.67;;;3.80;;
1509;SDS011;746;48.688;9.428;2024-03-23T13:31:04;4.37;;;3.70;;
1509;SDS011;746;48.688;9.428;2024-03-23T13:33:25;6.50;;;3.57;;
1509;SDS011;746;48.688;9.428;2024-03-23T13:35:49;4.57;;;3.33;;
1509;SDS011;746;48.688;9.428;2024-03-23T13:38:11;3.67;;;3.20;;
1509;SDS011;746;48.688;9.428;2024-03-23T13:40:31;3.83;;;3.43;;
1509;SDS011;746;48.688;9.428;2024-03-23T13:42:53;4.53;;;3.33;;
1509;SDS011;746;48.688;9.428;2024-03-23T13:45:15;4.90;;;2.70;;
1509;SDS011;746;48.688;9.428;2024-03-23T13:47:37;2.97;;;2.10;;
1509;SDS011;746;48.688;9.428;2024-03-23T13:49:57;4.63;;;2.70;;
1509;SDS011;746;48.688;9.428;2024-03-23T13:52:18;4.60;;;2.53;;
1509;SDS011;746;48.688;9.428;2024-03-23T13:54:42;1.70;;;1.60;;
1509;SDS011;746;48.688;9.428;2024-03-23T13:57:06;2.23;;;1.90;;
1509;SDS011;746;48.688;9.428;2024-03-23T13:59:30;2.77;;;1.93;;
1509;SDS011;746;48.688;9.428;2024-03-23T14:01:53;3.40;;;1.57;;
1509;SDS011;746;48.688;9.428;2024-03-23T14:04:13;3.60;;;1.93;;
1509;SDS011;746;48.688;9.428;2024-03-23T14:06:36;2.67;;;2.03;;
1509;SDS011;746;48.688;9.428;2024-03-23T14:08:59;2.07;;;1.80;;
1509;SDS011;746;48.688;9.428;2024-03-23T14:11:21;2.93;;;2.50;;
1509;SDS011;746;48.688;9.428;2024-03-23T14:13:41;2.63;;;1.80;;
1509;SDS011;746;48.688;9.428;2024-03-23T14:16:03;4.87;;;2.33;;
1509;SDS011;746;48.688;9.428;2024-03-23T14:18:25;2.37;;;1.60;;
1509;SDS011;746;48.688;9.428;2024-03-23T14:20:56;2.47;;;1.80;;
1509;SDS011;746;48.688;9.428;2024-03-23T14:23:17;2.73;;;1.70;;
1509;SDS011;746;48.688;9.428;2024-03-23T14:25:39;2.90;;;1.83;;
1509;SDS011;746;48.688;9.428;2024-03-23T14:27:59;3.17;;;2.90;;
1509;SDS011;746;48.688;9.428;2024-03-23T14:30:24;4.70;;;2.77;;
1509;SDS011;746;48.688;9.428;2024-03-23T14:32:44;5.37;;;2.60;;
1509;SDS011;746;48.688;9.428;2024-03-23T14:35:08;3.67;;;2.77;;
1509;SDS011;746;48.688;9.428;2024-03-23T14:37:30;3.50;;;2.50;;
1509;SDS011;746;48.688;9.428;2024-03-23T14:39:51;5.43;;;3.63;;
1509;SDS011;746;48.688;9.428;2024-03-23T14:42:12;3.33;;;2.30;;
1509;SDS011;746;48.688;9.428;2024-03-23T14:44:33;4.20;;;2.63;;
1509;SDS011;746;48.688;9.428;2024-03-23T14:46:54;4.73;;;2.17;;
1509;SDS011;746;48.688;9.428;2024-03-23T14:49:15;2.40;;;1.97;;
1509;SDS011;746;48.688;9.428;2024-03-23T14:51:37;2.00;;;1.57;;
1509;SDS011;746;48.688;9.428;2024-03-23T14:53:58;1.97;;;1.70;;
1509;SDS011;746;48.688;9.428;2024-03-23T14:56:18;1.80;;;1.70;;
1509;SDS011;746;48.688;9.428;2024-03-23T14:58:39;1.77;;;1.63;;
1509;SDS011;746;48.688;9.428;2024-03-23T15:01:06;2.43;;;1.93;;
1509;SDS011;746;48.688;9.428;2024-03-23T15:03:29;1.50;;;1.40;;
1509;SDS011;746;48.688;9.428;2024-03-23T15:05:53;2.73;;;2.07;;
1509;SDS011;746;48.688;9.428;2024-03-23T15:08:16;2.27;;;1.60;;
1509;SDS011;746;48.688;9.428;2024-03-23T15:10:36;3.33;;;2.20;;
1509;SDS011;746;48.688;9.428;2024-03-23T15:12:58;2.60;;;2.20;;
1509;SDS011;746;48.688;9.428;2024-03-23T15:15:19;3.10;;;2.10;;
1509;SDS011;746;48.688;9.428;2024-03-23T15:17:41;2.50;;;2.00;;
1509;SDS011;746;48.688;9.428;2024-03-23T15:20:04;2.10;;;1.93;;
1509;SDS011;746;48.688;9.428;2024-03-23T15:22:26;2.17;;;1.97;;
1509;SDS011;746;48.688;9.428;2024-03-23T15:24:48;2.73;;;2.10;;
1509;SDS011;746;48.688;9.428;2024-03-23T15:27:09;4.77;;;2.00;;
1509;SDS011;746;48.688;9.428;2024-03-23T15:29:29;4.87;;;2.40;;
1509;SDS011;746;48.688;9.428;2024-03-23T15:31:51;3.60;;;2.57;;
1509;SDS011;746;48.688;9.428;2024-03-23T15:34:12;2.60;;;2.00;;
1509;SDS011;746;48.688;9.428;2024-03-23T15:36:33;2.27;;;2.07;;
1509;SDS011;746;48.688;9.428;2024-03-23T15:38:54;1.67;;;1.57;;
1509;SDS011;746;48.688;9.428;2024-03-23T15:41:17;2.63;;;1.50;;